sensor_id;sensor_type;location;lat;lon;timestamp;P1;durP1;ratioP1;P2;durP2;ratioP2
31728;SDS011;18309;43.658;1.312;2022-10-16T00:01:15;9.10;;;4.70;;
31728;SDS011;18309;43.658;1.312;2022-10-16T00:03:42;8.07;;;4.78;;
31728;SDS011;18309;43.658;1.312;2022-10-16T00:06:09;10.30;;;4.85;;
31728;SDS011;18309;43.658;1.312;2022-10-16T00:08:37;7.47;;;4.93;;
31728;SDS011;18309;43.658;1.312;2022-10-16T00:14:03;9.88;;;5.18;;
31728;SDS011;18309;43.658;1.312;2022-10-16T00:16:34;7.93;;;4.75;;
31728;SDS011;18309;43.658;1.312;2022-10-16T00:19:00;14.55;;;5.07;;
31728;SDS011;18309;43.658;1.312;2022-10-16T00:21:26;8.52;;;4.93;;
31728;SDS011;18309;43.658;1.312;2022-10-16T00:23:55;17.30;;;5.15;;
31728;SDS011;18309;43.658;1.312;2022-10-16T00:26:33;8.10;;;4.93;;
31728;SDS011;18309;43.658;1.312;2022-10-16T00:29:01;11.90;;;4.88;;
31728;SDS011;18309;43.658;1.312;2022-10-16T00:31:27;9.40;;;4.93;;
31728;SDS011;18309;43.658;1.312;2022-10-16T00:33:54;11.63;;;5.28;;
31728;SDS011;18309;43.658;1.312;2022-10-16T00:36:21;8.65;;;4.85;;
31728;SDS011;18309;43.658;1.312;2022-10-16T00:38:52;7.78;;;5.32;;
31728;SDS011;18309;43.658;1.312;2022-10-16T00:43:50;12.35;;;5.03;;
31728;SDS011;18309;43.658;1.312;2022-10-16T00:46:34;9.75;;;5.10;;
31728;SDS011;18309;43.658;1.312;2022-10-16T00:49:04;16.77;;;4.90;;
31728;SDS011;18309;43.658;1.312;2022-10-16T00:51:41;11.95;;;5.38;;
31728;SDS011;18309;43.658;1.312;2022-10-16T00:54:16;10.30;;;5.53;;
31728;SDS011;18309;43.658;1.312;2022-10-16T00:56:47;7.78;;;4.50;;
31728;SDS011;18309;43.658;1.312;2022-10-16T00:59:21;10.00;;;5.05;;
31728;SDS011;18309;43.658;1.312;2022-10-16T01:01:50;11.60;;;5.38;;
31728;SDS011;18309;43.658;1.312;2022-10-16T01:04:17;13.15;;;5.70;;
31728;SDS011;18309;43.658;1.312;2022-10-16T01:12:18;12.52;;;5.05;;
31728;SDS011;18309;43.658;1.312;2022-10-16T01:14:57;8.63;;;5.18;;
31728;SDS011;18309;43.658;1.312;2022-10-16T01:17:45;11.05;;;5.28;;
31728;SDS011;18309;43.658;1.312;2022-10-16T01:32:38;8.77;;;5.22;;
31728;SDS011;18309;43.658;1.312;2022-10-16T01:35:18;14.13;;;6.18;;
31728;SDS011;18309;43.658;1.312;2022-10-16T01:40:40;10.02;;;4.88;;
31728;SDS011;18309;43.658;1.312;2022-10-16T01:43:12;8.77;;;4.40;;
31728;SDS011;18309;43.658;1.312;2022-10-16T01:45:46;10.15;;;4.82;;
31728;SDS011;18309;43.658;1.312;2022-10-16T01:48:13;8.13;;;4.95;;
31728;SDS011;18309;43.658;1.312;2022-10-16T01:50:41;11.18;;;5.78;;
31728;SDS011;18309;43.658;1.312;2022-10-16T01:53:09;13.43;;;4.93;;
31728;SDS011;18309;43.658;1.312;2022-10-16T01:55:38;9.02;;;6.10;;
31728;SDS011;18309;43.658;1.312;2022-10-16T01:58:10;10.07;;;5.35;;
31728;SDS011;18309;43.658;1.312;2022-10-16T02:00:38;9.60;;;5.18;;
31728;SDS011;18309;43.658;1.312;2022-10-16T02:03:08;9.98;;;4.85;;
31728;SDS011;18309;43.658;1.312;2022-10-16T02:05:41;13.32;;;5.25;;
31728;SDS011;18309;43.658;1.312;2022-10-16T02:08:08;16.67;;;6.30;;
31728;SDS011;18309;43.658;1.312;2022-10-16T02:10:34;14.30;;;5.72;;
31728;SDS011;18309;43.658;1.312;2022-10-16T02:13:09;10.52;;;5.55;;
31728;SDS011;18309;43.658;1.312;2022-10-16T02:15:42;15.27;;;5.60;;
31728;SDS011;18309;43.658;1.312;2022-10-16T02:18:08;16.55;;;6.53;;
31728;SDS011;18309;43.658;1.312;2022-10-16T02:21:12;10.57;;;5.22;;
31728;SDS011;18309;43.658;1.312;2022-10-16T02:23:37;18.17;;;6.10;;
31728;SDS011;18309;43.658;1.312;2022-10-16T02:26:17;12.95;;;5.90;;
31728;SDS011;18309;43.658;1.312;2022-10-16T02:28:52;11.10;;;6.40;;
31728;SDS011;18309;43.658;1.312;2022-10-16T02:31:24;15.80;;;6.20;;
31728;SDS011;18309;43.658;1.312;2022-10-16T02:33:53;11.63;;;6.18;;
31728;SDS011;18309;43.658;1.312;2022-10-16T02:36:22;13.88;;;6.93;;
31728;SDS011;18309;43.658;1.312;2022-10-16T02:38:48;14.02;;;7.10;;
31728;SDS011;18309;43.658;1.312;2022-10-16T02:41:15;11.90;;;5.95;;
31728;SDS011;18309;43.658;1.312;2022-10-16T02:43:40;17.85;;;7.70;;
31728;SDS011;18309;43.658;1.312;2022-10-16T02:46:06;13.52;;;7.10;;
31728;SDS011;18309;43.658;1.312;2022-10-16T02:48:32;15.02;;;7.22;;
31728;SDS011;18309;43.658;1.312;2022-10-16T02:50:58;18.08;;;8.02;;
31728;SDS011;18309;43.658;1.312;2022-10-16T02:53:24;12.88;;;7.00;;
31728;SDS011;18309;43.658;1.312;2022-10-16T02:55:49;19.00;;;7.25;;
31728;SDS011;18309;43.658;1.312;2022-10-16T02:58:15;18.70;;;7.70;;
31728;SDS011;18309;43.658;1.312;2022-10-16T03:00:41;19.17;;;7.70;;
31728;SDS011;18309;43.658;1.312;2022-10-16T03:03:07;19.17;;;7.30;;
31728;SDS011;18309;43.658;1.312;2022-10-16T03:05:33;23.65;;;7.68;;
31728;SDS011;18309;43.658;1.312;2022-10-16T03:07:58;15.23;;;7.60;;
31728;SDS011;18309;43.658;1.312;2022-10-16T03:10:25;16.00;;;7.20;;
31728;SDS011;18309;43.658;1.312;2022-10-16T03:12:51;20.52;;;7.65;;
31728;SDS011;18309;43.658;1.312;2022-10-16T03:15:17;12.93;;;7.00;;
31728;SDS011;18309;43.658;1.312;2022-10-16T03:17:43;14.60;;;7.05;;
31728;SDS011;18309;43.658;1.312;2022-10-16T03:20:09;15.02;;;7.05;;
31728;SDS011;18309;43.658;1.312;2022-10-16T03:22:34;10.15;;;7.18;;
31728;SDS011;18309;43.658;1.312;2022-10-16T03:25:00;15.32;;;7.20;;
31728;SDS011;18309;43.658;1.312;2022-10-16T03:27:26;17.55;;;8.10;;
31728;SDS011;18309;43.658;1.312;2022-10-16T03:29:51;11.75;;;7.43;;
31728;SDS011;18309;43.658;1.312;2022-10-16T03:32:17;15.88;;;7.53;;
31728;SDS011;18309;43.658;1.312;2022-10-16T03:34:45;17.67;;;7.63;;
31728;SDS011;18309;43.658;1.312;2022-10-16T03:37:10;13.00;;;6.78;;
31728;SDS011;18309;43.658;1.312;2022-10-16T03:39:36;18.50;;;7.35;;
31728;SDS011;18309;43.658;1.312;2022-10-16T03:42:02;15.70;;;7.38;;
31728;SDS011;18309;43.658;1.312;2022-10-16T03:44:27;12.50;;;6.88;;
31728;SDS011;18309;43.658;1.312;2022-10-16T03:46:53;15.65;;;7.00;;
31728;SDS011;18309;43.658;1.312;2022-10-16T03:49:19;16.13;;;7.57;;
31728;SDS011;18309;43.658;1.312;2022-10-16T03:51:44;16.60;;;7.80;;
31728;SDS011;18309;43.658;1.312;2022-10-16T03:54:10;10.60;;;7.18;;
31728;SDS011;18309;43.658;1.312;2022-10-16T03:56:36;14.73;;;7.45;;
31728;SDS011;18309;43.658;1.312;2022-10-16T03:59:02;18.95;;;7.40;;
31728;SDS011;18309;43.658;1.312;2022-10-16T04:01:28;15.45;;;7.55;;
31728;SDS011;18309;43.658;1.312;2022-10-16T04:03:54;21.13;;;8.10;;
31728;SDS011;18309;43.658;1.312;2022-10-16T04:06:19;17.08;;;8.38;;
31728;SDS011;18309;43.658;1.312;2022-10-16T04:08:45;14.88;;;7.53;;
31728;SDS011;18309;43.658;1.312;2022-10-16T04:11:11;18.45;;;8.50;;
31728;SDS011;18309;43.658;1.312;2022-10-16T04:13:37;15.00;;;7.38;;
31728;SDS011;18309;43.658;1.312;2022-10-16T04:16:02;19.70;;;7.97;;
31728;SDS011;18309;43.658;1.312;2022-10-16T04:18:28;13.10;;;7.20;;
31728;SDS011;18309;43.658;1.312;2022-10-16T04:20:54;18.27;;;8.90;;
31728;SDS011;18309;43.658;1.312;2022-10-16T04:23:20;15.43;;;8.18;;
31728;SDS011;18309;43.658;1.312;2022-10-16T04:25:47;22.33;;;8.00;;
31728;SDS011;18309;43.658;1.312;2022-10-16T04:28:13;20.42;;;8.30;;
31728;SDS011;18309;43.658;1.312;2022-10-16T04:30:39;17.88;;;8.02;;
31728;SDS011;18309;43.658;1.312;2022-10-16T04:33:05;15.80;;;7.70;;
31728;SDS011;18309;43.658;1.312;2022-10-16T04:35:30;16.33;;;7.78;;
31728;SDS011;18309;43.658;1.312;2022-10-16T04:37:59;18.35;;;8.02;;
31728;SDS011;18309;43.658;1.312;2022-10-16T04:40:24;15.40;;;7.68;;
31728;SDS011;18309;43.658;1.312;2022-10-16T04:42:50;18.65;;;8.70;;
31728;SDS011;18309;43.658;1.312;2022-10-16T04:45:16;22.25;;;8.55;;
31728;SDS011;18309;43.658;1.312;2022-10-16T04:47:41;16.30;;;8.45;;
31728;SDS011;18309;43.658;1.312;2022-10-16T04:50:07;18.48;;;7.95;;
31728;SDS011;18309;43.658;1.312;2022-10-16T04:52:33;18.50;;;8.02;;
31728;SDS011;18309;43.658;1.312;2022-10-16T04:54:59;17.13;;;8.80;;
31728;SDS011;18309;43.658;1.312;2022-10-16T04:57:27;16.27;;;7.70;;
31728;SDS011;18309;43.658;1.312;2022-10-16T04:59:54;19.40;;;7.45;;
31728;SDS011;18309;43.658;1.312;2022-10-16T05:02:20;17.75;;;7.90;;
31728;SDS011;18309;43.658;1.312;2022-10-16T05:04:45;16.48;;;7.15;;
31728;SDS011;18309;43.658;1.312;2022-10-16T05:07:11;30.17;;;8.18;;
31728;SDS011;18309;43.658;1.312;2022-10-16T05:09:37;16.58;;;7.20;;
31728;SDS011;18309;43.658;1.312;2022-10-16T05:12:02;22.20;;;7.30;;
31728;SDS011;18309;43.658;1.312;2022-10-16T05:14:28;19.15;;;8.43;;
31728;SDS011;18309;43.658;1.312;2022-10-16T05:16:54;15.27;;;8.07;;
31728;SDS011;18309;43.658;1.312;2022-10-16T05:19:20;17.58;;;7.45;;
31728;SDS011;18309;43.658;1.312;2022-10-16T05:21:46;18.48;;;8.00;;
31728;SDS011;18309;43.658;1.312;2022-10-16T05:24:11;18.73;;;7.25;;
31728;SDS011;18309;43.658;1.312;2022-10-16T05:26:37;18.85;;;7.65;;
31728;SDS011;18309;43.658;1.312;2022-10-16T05:29:03;17.42;;;7.80;;
31728;SDS011;18309;43.658;1.312;2022-10-16T05:31:28;19.02;;;7.65;;
31728;SDS011;18309;43.658;1.312;2022-10-16T05:34:00;18.77;;;8.18;;
31728;SDS011;18309;43.658;1.312;2022-10-16T05:36:27;14.20;;;7.35;;
31728;SDS011;18309;43.658;1.312;2022-10-16T05:38:53;24.63;;;8.07;;
31728;SDS011;18309;43.658;1.312;2022-10-16T05:41:18;16.40;;;7.95;;
31728;SDS011;18309;43.658;1.312;2022-10-16T05:43:47;18.17;;;7.93;;
31728;SDS011;18309;43.658;1.312;2022-10-16T05:46:13;20.15;;;8.32;;
31728;SDS011;18309;43.658;1.312;2022-10-16T05:48:39;24.40;;;8.05;;
31728;SDS011;18309;43.658;1.312;2022-10-16T05:51:06;21.65;;;8.50;;
31728;SDS011;18309;43.658;1.312;2022-10-16T05:53:34;18.50;;;7.60;;
31728;SDS011;18309;43.658;1.312;2022-10-16T05:56:02;16.92;;;7.80;;
31728;SDS011;18309;43.658;1.312;2022-10-16T05:58:29;19.52;;;8.30;;
31728;SDS011;18309;43.658;1.312;2022-10-16T06:00:57;18.17;;;7.60;;
31728;SDS011;18309;43.658;1.312;2022-10-16T06:03:24;21.45;;;7.55;;
31728;SDS011;18309;43.658;1.312;2022-10-16T06:05:51;24.92;;;8.30;;
31728;SDS011;18309;43.658;1.312;2022-10-16T06:08:17;22.27;;;8.27;;
31728;SDS011;18309;43.658;1.312;2022-10-16T06:10:44;19.60;;;8.10;;
31728;SDS011;18309;43.658;1.312;2022-10-16T06:13:11;15.75;;;7.65;;
31728;SDS011;18309;43.658;1.312;2022-10-16T06:15:39;26.17;;;8.90;;
31728;SDS011;18309;43.658;1.312;2022-10-16T06:18:07;22.73;;;8.30;;
31728;SDS011;18309;43.658;1.312;2022-10-16T06:20:34;16.95;;;8.50;;
31728;SDS011;18309;43.658;1.312;2022-10-16T06:23:00;19.50;;;9.13;;
31728;SDS011;18309;43.658;1.312;2022-10-16T06:25:25;19.58;;;8.00;;
31728;SDS011;18309;43.658;1.312;2022-10-16T06:27:51;25.67;;;9.98;;
31728;SDS011;18309;43.658;1.312;2022-10-16T06:30:17;18.92;;;8.43;;
31728;SDS011;18309;43.658;1.312;2022-10-16T06:32:42;21.92;;;8.82;;
31728;SDS011;18309;43.658;1.312;2022-10-16T06:35:08;23.40;;;8.40;;
31728;SDS011;18309;43.658;1.312;2022-10-16T06:37:34;14.57;;;8.25;;
31728;SDS011;18309;43.658;1.312;2022-10-16T06:39:59;24.52;;;8.85;;
31728;SDS011;18309;43.658;1.312;2022-10-16T06:42:25;18.95;;;7.90;;
31728;SDS011;18309;43.658;1.312;2022-10-16T06:44:51;20.75;;;8.43;;
31728;SDS011;18309;43.658;1.312;2022-10-16T06:47:16;16.33;;;8.57;;
31728;SDS011;18309;43.658;1.312;2022-10-16T06:49:42;17.02;;;8.57;;
31728;SDS011;18309;43.658;1.312;2022-10-16T06:52:08;16.02;;;8.85;;
31728;SDS011;18309;43.658;1.312;2022-10-16T06:54:33;22.58;;;9.27;;
31728;SDS011;18309;43.658;1.312;2022-10-16T06:56:59;23.75;;;8.73;;
31728;SDS011;18309;43.658;1.312;2022-10-16T06:59:26;21.23;;;9.38;;
31728;SDS011;18309;43.658;1.312;2022-10-16T07:01:52;17.35;;;9.32;;
31728;SDS011;18309;43.658;1.312;2022-10-16T07:04:18;18.95;;;9.60;;
31728;SDS011;18309;43.658;1.312;2022-10-16T07:06:43;19.92;;;8.98;;
31728;SDS011;18309;43.658;1.312;2022-10-16T07:09:09;23.13;;;9.25;;
31728;SDS011;18309;43.658;1.312;2022-10-16T07:11:36;21.35;;;8.60;;
31728;SDS011;18309;43.658;1.312;2022-10-16T07:14:03;15.30;;;8.32;;
31728;SDS011;18309;43.658;1.312;2022-10-16T07:16:31;27.88;;;9.15;;
31728;SDS011;18309;43.658;1.312;2022-10-16T07:18:58;21.85;;;9.15;;
31728;SDS011;18309;43.658;1.312;2022-10-16T07:21:26;21.88;;;8.88;;
31728;SDS011;18309;43.658;1.312;2022-10-16T07:23:57;17.30;;;9.20;;
31728;SDS011;18309;43.658;1.312;2022-10-16T07:26:25;15.18;;;8.50;;
31728;SDS011;18309;43.658;1.312;2022-10-16T07:28:52;19.92;;;9.55;;
31728;SDS011;18309;43.658;1.312;2022-10-16T07:31:18;17.40;;;8.75;;
31728;SDS011;18309;43.658;1.312;2022-10-16T07:33:46;24.40;;;8.60;;
31728;SDS011;18309;43.658;1.312;2022-10-16T07:36:13;15.75;;;8.98;;
31728;SDS011;18309;43.658;1.312;2022-10-16T07:38:40;18.17;;;8.07;;
31728;SDS011;18309;43.658;1.312;2022-10-16T07:41:07;27.27;;;9.20;;
31728;SDS011;18309;43.658;1.312;2022-10-16T07:43:35;19.63;;;9.73;;
31728;SDS011;18309;43.658;1.312;2022-10-16T07:46:01;24.38;;;9.40;;
31728;SDS011;18309;43.658;1.312;2022-10-16T07:48:28;16.80;;;8.45;;
31728;SDS011;18309;43.658;1.312;2022-10-16T07:50:57;14.18;;;7.85;;
31728;SDS011;18309;43.658;1.312;2022-10-16T07:53:24;20.45;;;8.88;;
31728;SDS011;18309;43.658;1.312;2022-10-16T07:55:50;16.02;;;8.65;;
31728;SDS011;18309;43.658;1.312;2022-10-16T07:58:15;18.90;;;9.23;;
31728;SDS011;18309;43.658;1.312;2022-10-16T08:00:41;17.63;;;9.07;;
31728;SDS011;18309;43.658;1.312;2022-10-16T08:03:07;14.88;;;8.15;;
31728;SDS011;18309;43.658;1.312;2022-10-16T08:05:33;18.42;;;8.30;;
31728;SDS011;18309;43.658;1.312;2022-10-16T08:07:59;17.55;;;8.57;;
31728;SDS011;18309;43.658;1.312;2022-10-16T08:10:27;20.02;;;9.00;;
31728;SDS011;18309;43.658;1.312;2022-10-16T08:12:53;17.88;;;7.80;;
31728;SDS011;18309;43.658;1.312;2022-10-16T08:15:19;18.30;;;8.63;;
31728;SDS011;18309;43.658;1.312;2022-10-16T08:17:55;20.45;;;7.47;;
31728;SDS011;18309;43.658;1.312;2022-10-16T08:20:25;13.13;;;7.83;;
31728;SDS011;18309;43.658;1.312;2022-10-16T08:22:52;25.35;;;8.43;;
31728;SDS011;18309;43.658;1.312;2022-10-16T08:25:18;15.18;;;7.50;;
31728;SDS011;18309;43.658;1.312;2022-10-16T08:27:43;18.63;;;8.80;;
31728;SDS011;18309;43.658;1.312;2022-10-16T08:30:09;14.82;;;7.43;;
31728;SDS011;18309;43.658;1.312;2022-10-16T08:32:35;14.93;;;7.72;;
31728;SDS011;18309;43.658;1.312;2022-10-16T08:35:01;19.85;;;8.25;;
31728;SDS011;18309;43.658;1.312;2022-10-16T08:37:30;19.00;;;8.52;;
31728;SDS011;18309;43.658;1.312;2022-10-16T08:39:57;19.33;;;8.43;;
31728;SDS011;18309;43.658;1.312;2022-10-16T08:45:19;16.83;;;7.38;;
31728;SDS011;18309;43.658;1.312;2022-10-16T08:50:42;19.48;;;8.57;;
31728;SDS011;18309;43.658;1.312;2022-10-16T08:53:19;15.07;;;8.18;;
31728;SDS011;18309;43.658;1.312;2022-10-16T08:55:51;16.35;;;9.05;;
31728;SDS011;18309;43.658;1.312;2022-10-16T08:58:22;15.13;;;8.15;;
31728;SDS011;18309;43.658;1.312;2022-10-16T09:01:01;18.60;;;8.85;;
31728;SDS011;18309;43.658;1.312;2022-10-16T09:17:03;18.92;;;9.07;;
31728;SDS011;18309;43.658;1.312;2022-10-16T09:19:48;18.60;;;9.10;;
31728;SDS011;18309;43.658;1.312;2022-10-16T09:22:18;22.98;;;8.38;;
31728;SDS011;18309;43.658;1.312;2022-10-16T09:24:51;23.08;;;8.60;;
31728;SDS011;18309;43.658;1.312;2022-10-16T09:27:18;20.08;;;7.65;;
31728;SDS011;18309;43.658;1.312;2022-10-16T09:29:44;17.60;;;7.90;;
31728;SDS011;18309;43.658;1.312;2022-10-16T09:32:11;14.55;;;7.57;;
31728;SDS011;18309;43.658;1.312;2022-10-16T09:34:41;19.63;;;8.65;;
31728;SDS011;18309;43.658;1.312;2022-10-16T09:37:12;23.60;;;7.82;;
31728;SDS011;18309;43.658;1.312;2022-10-16T09:42:14;17.75;;;7.68;;
31728;SDS011;18309;43.658;1.312;2022-10-16T09:44:47;18.35;;;7.80;;
31728;SDS011;18309;43.658;1.312;2022-10-16T09:47:18;17.35;;;7.32;;
31728;SDS011;18309;43.658;1.312;2022-10-16T09:52:26;21.92;;;7.20;;
31728;SDS011;18309;43.658;1.312;2022-10-16T09:54:59;21.27;;;7.25;;
31728;SDS011;18309;43.658;1.312;2022-10-16T09:57:48;21.45;;;6.80;;
31728;SDS011;18309;43.658;1.312;2022-10-16T10:00:15;24.90;;;7.22;;
31728;SDS011;18309;43.658;1.312;2022-10-16T10:02:42;19.02;;;6.13;;
31728;SDS011;18309;43.658;1.312;2022-10-16T10:05:27;20.60;;;6.65;;
31728;SDS011;18309;43.658;1.312;2022-10-16T10:07:58;17.75;;;6.35;;
31728;SDS011;18309;43.658;1.312;2022-10-16T10:10:26;16.88;;;6.70;;
31728;SDS011;18309;43.658;1.312;2022-10-16T10:12:54;18.50;;;6.63;;
31728;SDS011;18309;43.658;1.312;2022-10-16T10:15:20;26.25;;;6.43;;
31728;SDS011;18309;43.658;1.312;2022-10-16T10:20:28;17.55;;;6.13;;
31728;SDS011;18309;43.658;1.312;2022-10-16T10:22:57;18.58;;;5.53;;
31728;SDS011;18309;43.658;1.312;2022-10-16T10:31:23;14.45;;;5.60;;
31728;SDS011;18309;43.658;1.312;2022-10-16T10:33:57;10.98;;;5.30;;
31728;SDS011;18309;43.658;1.312;2022-10-16T10:36:42;18.85;;;5.55;;
31728;SDS011;18309;43.658;1.312;2022-10-16T10:39:59;11.38;;;4.97;;
31728;SDS011;18309;43.658;1.312;2022-10-16T10:42:12;16.48;;;5.18;;
31728;SDS011;18309;43.658;1.312;2022-10-16T10:45:11;18.23;;;6.77;;
31728;SDS011;18309;43.658;1.312;2022-10-16T10:47:47;12.38;;;4.90;;
31728;SDS011;18309;43.658;1.312;2022-10-16T10:50:31;14.32;;;4.70;;
31728;SDS011;18309;43.658;1.312;2022-10-16T11:07:11;16.77;;;5.30;;
31728;SDS011;18309;43.658;1.312;2022-10-16T11:09:47;21.75;;;5.28;;
31728;SDS011;18309;43.658;1.312;2022-10-16T11:12:19;16.23;;;5.75;;
31728;SDS011;18309;43.658;1.312;2022-10-16T11:17:40;18.67;;;4.88;;
31728;SDS011;18309;43.658;1.312;2022-10-16T11:20:23;9.73;;;4.53;;
31728;SDS011;18309;43.658;1.312;2022-10-16T11:23:04;14.70;;;4.60;;
31728;SDS011;18309;43.658;1.312;2022-10-16T11:25:43;15.55;;;4.95;;
31728;SDS011;18309;43.658;1.312;2022-10-16T11:28:27;16.95;;;4.53;;
31728;SDS011;18309;43.658;1.312;2022-10-16T11:39:08;15.63;;;4.38;;
31728;SDS011;18309;43.658;1.312;2022-10-16T11:46:53;9.73;;;4.15;;
31728;SDS011;18309;43.658;1.312;2022-10-16T11:49:33;12.25;;;3.72;;
31728;SDS011;18309;43.658;1.312;2022-10-16T11:52:44;18.85;;;4.70;;
31728;SDS011;18309;43.658;1.312;2022-10-16T11:55:05;14.87;;;4.20;;
31728;SDS011;18309;43.658;1.312;2022-10-16T11:57:44;13.07;;;3.72;;
31728;SDS011;18309;43.658;1.312;2022-10-16T12:00:24;17.02;;;4.50;;
31728;SDS011;18309;43.658;1.312;2022-10-16T12:02:58;9.77;;;4.18;;
31728;SDS011;18309;43.658;1.312;2022-10-16T12:05:41;15.60;;;3.47;;
31728;SDS011;18309;43.658;1.312;2022-10-16T12:08:16;15.18;;;3.63;;
31728;SDS011;18309;43.658;1.312;2022-10-16T12:10:43;11.00;;;4.07;;
31728;SDS011;18309;43.658;1.312;2022-10-16T12:18:42;20.92;;;4.25;;
31728;SDS011;18309;43.658;1.312;2022-10-16T12:21:10;11.75;;;3.97;;
31728;SDS011;18309;43.658;1.312;2022-10-16T12:26:50;9.70;;;3.55;;
31728;SDS011;18309;43.658;1.312;2022-10-16T12:29:53;22.65;;;3.88;;
31728;SDS011;18309;43.658;1.312;2022-10-16T12:32:01;15.02;;;4.15;;
31728;SDS011;18309;43.658;1.312;2022-10-16T12:36:54;16.77;;;4.05;;
31728;SDS011;18309;43.658;1.312;2022-10-16T12:39:24;12.95;;;3.63;;
31728;SDS011;18309;43.658;1.312;2022-10-16T12:42:03;13.70;;;3.25;;
31728;SDS011;18309;43.658;1.312;2022-10-16T12:44:34;14.10;;;2.92;;
31728;SDS011;18309;43.658;1.312;2022-10-16T12:49:32;12.32;;;2.95;;
31728;SDS011;18309;43.658;1.312;2022-10-16T12:52:03;11.45;;;2.97;;
31728;SDS011;18309;43.658;1.312;2022-10-16T12:54:30;10.02;;;2.30;;
31728;SDS011;18309;43.658;1.312;2022-10-16T12:59:42;9.00;;;2.72;;
31728;SDS011;18309;43.658;1.312;2022-10-16T13:02:15;11.98;;;2.70;;
31728;SDS011;18309;43.658;1.312;2022-10-16T13:24:36;11.73;;;2.17;;
31728;SDS011;18309;43.658;1.312;2022-10-16T13:27:27;5.95;;;1.92;;
31728;SDS011;18309;43.658;1.312;2022-10-16T13:30:17;8.95;;;2.17;;
31728;SDS011;18309;43.658;1.312;2022-10-16T13:32:49;9.90;;;2.45;;
31728;SDS011;18309;43.658;1.312;2022-10-16T13:35:30;7.18;;;2.28;;
31728;SDS011;18309;43.658;1.312;2022-10-16T13:38:13;6.63;;;2.00;;
31728;SDS011;18309;43.658;1.312;2022-10-16T13:41:15;10.18;;;2.28;;
31728;SDS011;18309;43.658;1.312;2022-10-16T13:43:44;6.13;;;1.90;;
31728;SDS011;18309;43.658;1.312;2022-10-16T13:46:18;13.82;;;2.05;;
31728;SDS011;18309;43.658;1.312;2022-10-16T13:49:03;11.13;;;3.05;;
31728;SDS011;18309;43.658;1.312;2022-10-16T13:51:36;16.08;;;2.72;;
31728;SDS011;18309;43.658;1.312;2022-10-16T13:54:02;8.15;;;1.75;;
31728;SDS011;18309;43.658;1.312;2022-10-16T13:56:28;6.25;;;1.90;;
31728;SDS011;18309;43.658;1.312;2022-10-16T13:58:59;6.47;;;1.92;;
31728;SDS011;18309;43.658;1.312;2022-10-16T14:04:00;10.05;;;2.47;;
31728;SDS011;18309;43.658;1.312;2022-10-16T14:06:32;9.73;;;2.03;;
31728;SDS011;18309;43.658;1.312;2022-10-16T14:11:51;13.75;;;1.67;;
31728;SDS011;18309;43.658;1.312;2022-10-16T14:14:42;9.48;;;2.15;;
31728;SDS011;18309;43.658;1.312;2022-10-16T14:19:53;15.13;;;2.35;;
31728;SDS011;18309;43.658;1.312;2022-10-16T14:27:55;8.63;;;2.00;;
31728;SDS011;18309;43.658;1.312;2022-10-16T14:33:20;17.30;;;3.10;;
31728;SDS011;18309;43.658;1.312;2022-10-16T14:38:27;15.98;;;3.00;;
31728;SDS011;18309;43.658;1.312;2022-10-16T14:40:54;8.60;;;2.42;;
31728;SDS011;18309;43.658;1.312;2022-10-16T14:43:31;12.95;;;2.58;;
31728;SDS011;18309;43.658;1.312;2022-10-16T14:46:21;8.27;;;2.35;;
31728;SDS011;18309;43.658;1.312;2022-10-16T14:48:54;13.30;;;2.47;;
31728;SDS011;18309;43.658;1.312;2022-10-16T14:51:28;9.68;;;2.17;;
31728;SDS011;18309;43.658;1.312;2022-10-16T14:53:54;11.57;;;2.42;;
31728;SDS011;18309;43.658;1.312;2022-10-16T14:56:21;16.08;;;2.83;;
31728;SDS011;18309;43.658;1.312;2022-10-16T14:58:51;10.95;;;2.72;;
31728;SDS011;18309;43.658;1.312;2022-10-16T15:01:18;12.17;;;2.40;;
31728;SDS011;18309;43.658;1.312;2022-10-16T15:03:44;12.13;;;2.22;;
31728;SDS011;18309;43.658;1.312;2022-10-16T15:06:11;10.38;;;2.38;;
31728;SDS011;18309;43.658;1.312;2022-10-16T15:08:37;8.25;;;1.92;;
31728;SDS011;18309;43.658;1.312;2022-10-16T15:11:03;6.70;;;2.13;;
31728;SDS011;18309;43.658;1.312;2022-10-16T15:13:29;8.00;;;2.53;;
31728;SDS011;18309;43.658;1.312;2022-10-16T15:15:55;12.90;;;2.70;;
31728;SDS011;18309;43.658;1.312;2022-10-16T15:18:20;12.10;;;2.40;;
31728;SDS011;18309;43.658;1.312;2022-10-16T15:20:48;13.25;;;2.20;;
31728;SDS011;18309;43.658;1.312;2022-10-16T15:23:18;7.22;;;2.10;;
31728;SDS011;18309;43.658;1.312;2022-10-16T15:25:47;9.90;;;2.15;;
31728;SDS011;18309;43.658;1.312;2022-10-16T15:28:14;9.82;;;2.17;;
31728;SDS011;18309;43.658;1.312;2022-10-16T15:30:40;10.80;;;2.33;;
31728;SDS011;18309;43.658;1.312;2022-10-16T15:33:11;10.10;;;2.00;;
31728;SDS011;18309;43.658;1.312;2022-10-16T15:35:42;10.23;;;2.10;;
31728;SDS011;18309;43.658;1.312;2022-10-16T15:38:12;17.40;;;2.72;;
31728;SDS011;18309;43.658;1.312;2022-10-16T15:40:38;15.20;;;2.45;;
31728;SDS011;18309;43.658;1.312;2022-10-16T15:43:04;10.93;;;2.40;;
31728;SDS011;18309;43.658;1.312;2022-10-16T15:45:30;10.65;;;2.72;;
31728;SDS011;18309;43.658;1.312;2022-10-16T15:47:56;15.95;;;2.20;;
31728;SDS011;18309;43.658;1.312;2022-10-16T15:50:22;8.80;;;3.13;;
31728;SDS011;18309;43.658;1.312;2022-10-16T15:52:48;14.52;;;3.03;;
31728;SDS011;18309;43.658;1.312;2022-10-16T15:55:15;14.40;;;2.65;;
31728;SDS011;18309;43.658;1.312;2022-10-16T15:57:41;16.63;;;2.92;;
31728;SDS011;18309;43.658;1.312;2022-10-16T16:00:18;12.82;;;2.55;;
31728;SDS011;18309;43.658;1.312;2022-10-16T16:02:50;10.10;;;2.50;;
31728;SDS011;18309;43.658;1.312;2022-10-16T16:05:17;13.55;;;2.58;;
31728;SDS011;18309;43.658;1.312;2022-10-16T16:07:43;10.60;;;2.70;;
31728;SDS011;18309;43.658;1.312;2022-10-16T16:10:10;15.18;;;3.42;;
31728;SDS011;18309;43.658;1.312;2022-10-16T16:12:36;14.90;;;2.70;;
31728;SDS011;18309;43.658;1.312;2022-10-16T16:15:03;10.20;;;2.65;;
31728;SDS011;18309;43.658;1.312;2022-10-16T16:17:30;9.70;;;2.30;;
31728;SDS011;18309;43.658;1.312;2022-10-16T16:19:57;12.40;;;3.05;;
31728;SDS011;18309;43.658;1.312;2022-10-16T16:22:22;17.55;;;3.28;;
31728;SDS011;18309;43.658;1.312;2022-10-16T16:24:48;13.10;;;2.88;;
31728;SDS011;18309;43.658;1.312;2022-10-16T16:27:14;17.42;;;3.03;;
31728;SDS011;18309;43.658;1.312;2022-10-16T16:29:40;5.45;;;2.15;;
31728;SDS011;18309;43.658;1.312;2022-10-16T16:32:06;10.95;;;2.38;;
31728;SDS011;18309;43.658;1.312;2022-10-16T16:34:32;12.43;;;2.67;;
31728;SDS011;18309;43.658;1.312;2022-10-16T16:36:58;12.05;;;2.63;;
31728;SDS011;18309;43.658;1.312;2022-10-16T16:39:23;16.48;;;3.28;;
31728;SDS011;18309;43.658;1.312;2022-10-16T16:41:49;9.00;;;2.42;;
31728;SDS011;18309;43.658;1.312;2022-10-16T16:44:15;16.58;;;2.72;;
31728;SDS011;18309;43.658;1.312;2022-10-16T16:46:42;13.85;;;2.20;;
31728;SDS011;18309;43.658;1.312;2022-10-16T16:49:09;17.70;;;3.15;;
31728;SDS011;18309;43.658;1.312;2022-10-16T16:51:36;18.50;;;2.60;;
31728;SDS011;18309;43.658;1.312;2022-10-16T16:54:03;19.25;;;3.00;;
31728;SDS011;18309;43.658;1.312;2022-10-16T16:56:29;12.35;;;2.53;;
31728;SDS011;18309;43.658;1.312;2022-10-16T16:58:55;11.57;;;2.80;;
31728;SDS011;18309;43.658;1.312;2022-10-16T17:01:22;7.97;;;2.33;;
31728;SDS011;18309;43.658;1.312;2022-10-16T17:03:50;11.82;;;2.33;;
31728;SDS011;18309;43.658;1.312;2022-10-16T17:06:18;9.50;;;2.80;;
31728;SDS011;18309;43.658;1.312;2022-10-16T17:08:44;10.02;;;2.92;;
31728;SDS011;18309;43.658;1.312;2022-10-16T17:11:14;13.43;;;2.38;;
31728;SDS011;18309;43.658;1.312;2022-10-16T17:13:44;9.05;;;2.60;;